createdAt,value
2022-07-30T00:02:06.860Z,2.50
2022-07-30T00:04:33.557Z,2.90
2022-07-30T00:07:02.120Z,2.53
2022-07-30T00:09:29.046Z,3.00
2022-07-30T00:12:01.694Z,2.80
2022-07-30T00:14:28.434Z,2.70
2022-07-30T00:16:54.990Z,2.83
2022-07-30T00:19:22.045Z,2.95
2022-07-30T00:21:49.957Z,2.78
2022-07-30T00:24:17.025Z,2.78
2022-07-30T00:26:43.582Z,2.90
2022-07-30T00:29:10.173Z,2.47
2022-07-30T00:31:36.764Z,3.17
2022-07-30T00:34:03.514Z,2.90
2022-07-30T00:36:30.138Z,2.70
2022-07-30T00:38:56.822Z,2.75
2022-07-30T00:41:24.386Z,2.75
2022-07-30T00:43:51.100Z,2.80
2022-07-30T00:46:17.873Z,2.90
2022-07-30T00:48:45.811Z,2.80
2022-07-30T00:51:12.424Z,2.80
2022-07-30T00:53:39.066Z,2.70
2022-07-30T00:56:06.286Z,2.95
2022-07-30T00:58:32.981Z,2.97
2022-07-30T01:00:59.869Z,3.15
2022-07-30T01:03:26.530Z,2.75
2022-07-30T01:05:53.154Z,2.78
2022-07-30T01:08:19.738Z,2.78
2022-07-30T01:10:46.441Z,2.60
2022-07-30T01:13:13.200Z,2.78
2022-07-30T01:15:39.842Z,2.75
2022-07-30T01:18:10.145Z,2.97
2022-07-30T01:20:51.667Z,2.90
2022-07-30T01:23:35.888Z,3.20
2022-07-30T01:26:05.873Z,2.65
2022-07-30T01:28:36.729Z,2.92
2022-07-30T01:31:05.673Z,2.85
2022-07-30T01:33:35.025Z,3.28
2022-07-30T01:36:02.699Z,3.05
2022-07-30T01:38:34.958Z,3.03
2022-07-30T01:41:03.870Z,3.22
2022-07-30T01:43:32.559Z,3.30
2022-07-30T01:46:00.788Z,3.03
2022-07-30T01:48:29.042Z,3.30
2022-07-30T01:50:58.574Z,3.63
2022-07-30T01:53:28.438Z,3.47
2022-07-30T01:55:56.580Z,4.00
2022-07-30T01:58:26.677Z,4.00
2022-07-30T02:00:56.743Z,3.70
2022-07-30T02:03:23.983Z,4.60
2022-07-30T02:05:58.539Z,3.80
2022-07-30T02:08:36.483Z,4.60
2022-07-30T02:11:37.252Z,3.67
2022-07-30T02:14:09.717Z,3.65
2022-07-30T02:16:40.529Z,4.03
2022-07-30T02:19:16.282Z,4.55
2022-07-30T02:21:56.459Z,3.77
2022-07-30T02:24:27.769Z,4.22
2022-07-30T02:27:01.453Z,3.85
2022-07-30T02:29:30.094Z,4.93
2022-07-30T02:32:00.108Z,4.90
2022-07-30T02:34:28.837Z,4.35
2022-07-30T02:36:56.461Z,4.57
2022-07-30T02:39:23.096Z,4.63
2022-07-30T02:41:51.764Z,5.10
2022-07-30T02:44:20.334Z,4.20
2022-07-30T02:46:49.873Z,4.20
2022-07-30T02:49:19.422Z,4.93
2022-07-30T02:51:48.186Z,4.45
2022-07-30T02:54:18.375Z,4.57
2022-07-30T02:56:47.708Z,4.10
2022-07-30T02:59:17.502Z,3.80
2022-07-30T03:01:45.150Z,4.28
2022-07-30T03:04:14.006Z,3.65
2022-07-30T03:06:43.060Z,4.60
2022-07-30T03:09:10.605Z,3.95
2022-07-30T03:11:38.115Z,4.00
2022-07-30T03:14:04.819Z,4.53
2022-07-30T03:16:36.899Z,4.70
2022-07-30T03:19:06.775Z,4.32
2022-07-30T03:21:35.867Z,4.32
2022-07-30T03:24:04.775Z,4.28
2022-07-30T03:26:31.558Z,3.95
2022-07-30T03:28:59.059Z,4.25
2022-07-30T03:31:28.506Z,4.53
2022-07-30T03:34:03.400Z,4.13
2022-07-30T03:36:34.131Z,4.65
2022-07-30T03:39:02.451Z,4.88
2022-07-30T03:41:31.062Z,4.18
2022-07-30T03:44:00.524Z,4.90
2022-07-30T03:46:28.126Z,7.65
2022-07-30T03:48:55.440Z,7.50
2022-07-30T03:51:22.073Z,7.18
2022-07-30T03:53:49.050Z,8.77
2022-07-30T03:56:16.197Z,8.68
2022-07-30T03:58:43.817Z,8.63
2022-07-30T04:01:10.567Z,9.18
2022-07-30T04:03:37.203Z,8.75
2022-07-30T04:06:03.917Z,8.25
2022-07-30T04:08:30.697Z,7.82
2022-07-30T04:10:57.751Z,8.38
2022-07-30T04:13:26.397Z,9.18
2022-07-30T04:16:39.853Z,7.90
2022-07-30T04:18:56.354Z,7.88
2022-07-30T04:21:25.384Z,7.68
2022-07-30T04:24:03.055Z,9.57
2022-07-30T04:26:33.314Z,10.30
2022-07-30T04:29:01.208Z,8.60
2022-07-30T04:31:29.190Z,9.25
2022-07-30T04:33:55.884Z,9.05
2022-07-30T04:36:31.056Z,9.85
2022-07-30T04:38:58.735Z,7.85
2022-07-30T04:41:25.710Z,9.02
2022-07-30T04:43:53.105Z,6.75
2022-07-30T04:46:19.766Z,6.72
2022-07-30T04:48:48.099Z,7.40
2022-07-30T04:51:28.346Z,6.78
2022-07-30T04:53:57.419Z,7.18
2022-07-30T04:56:25.567Z,6.50
2022-07-30T04:58:54.011Z,8.00
2022-07-30T05:01:35.939Z,7.57
2022-07-30T05:04:09.006Z,6.78
2022-07-30T05:06:37.038Z,6.82
2022-07-30T05:09:04.364Z,7.57
2022-07-30T05:11:31.000Z,7.88
2022-07-30T05:13:57.750Z,6.80
2022-07-30T05:16:25.017Z,6.97
2022-07-30T05:18:52.206Z,6.75
2022-07-30T05:21:18.889Z,7.35
2022-07-30T05:23:50.051Z,6.13
2022-07-30T05:26:21.281Z,6.53
2022-07-30T05:28:53.626Z,5.57
2022-07-30T05:31:26.287Z,5.05
2022-07-30T05:33:58.272Z,5.47
2022-07-30T05:36:26.833Z,5.88
2022-07-30T05:38:53.351Z,5.85
2022-07-30T05:41:32.027Z,6.57
2022-07-30T05:44:00.683Z,6.25
2022-07-30T05:46:27.594Z,6.25
2022-07-30T05:48:54.337Z,5.90
2022-07-30T05:51:22.387Z,6.18
2022-07-30T05:53:49.723Z,6.00
2022-07-30T05:56:16.570Z,6.18
2022-07-30T05:58:43.242Z,5.90
2022-07-30T06:01:09.829Z,6.50
2022-07-30T06:03:36.524Z,6.05
2022-07-30T06:06:04.808Z,6.10
2022-07-30T06:08:31.577Z,5.97
2022-07-30T06:10:58.394Z,5.90
2022-07-30T06:13:25.196Z,5.90
2022-07-30T06:15:51.791Z,5.72
2022-07-30T06:18:18.460Z,5.90
2022-07-30T06:20:45.602Z,5.28
2022-07-30T06:23:12.303Z,5.00
2022-07-30T06:25:39.349Z,4.95
2022-07-30T06:28:27.761Z,4.93
2022-07-30T06:30:54.062Z,4.45
2022-07-30T06:33:21.753Z,5.03
2022-07-30T06:35:48.949Z,5.55
2022-07-30T06:38:16.560Z,4.63
2022-07-30T06:40:43.160Z,5.50
2022-07-30T06:43:09.782Z,5.90
2022-07-30T06:45:36.531Z,5.68
2022-07-30T06:48:03.240Z,5.97
2022-07-30T06:50:29.942Z,5.68
2022-07-30T06:52:56.470Z,5.47
2022-07-30T06:55:23.069Z,5.80
2022-07-30T06:57:49.650Z,4.88
2022-07-30T07:00:16.498Z,5.22
2022-07-30T07:02:43.439Z,6.13
2022-07-30T07:05:11.072Z,5.47
2022-07-30T07:07:42.995Z,5.82
2022-07-30T07:10:13.952Z,5.65
2022-07-30T07:12:40.595Z,5.38
2022-07-30T07:15:07.817Z,6.15
2022-07-30T07:17:34.505Z,5.57
2022-07-30T07:20:02.539Z,5.22
2022-07-30T07:22:30.061Z,5.35
2022-07-30T07:24:56.808Z,5.03
2022-07-30T07:27:23.808Z,5.55
2022-07-30T07:30:01.581Z,5.25
2022-07-30T07:32:33.222Z,4.93
2022-07-30T07:34:59.789Z,4.75
2022-07-30T07:37:26.361Z,5.47
2022-07-30T07:39:53.075Z,5.00
2022-07-30T07:42:19.717Z,5.20
2022-07-30T07:44:46.416Z,5.00
2022-07-30T07:47:13.112Z,4.40
2022-07-30T07:49:39.711Z,4.80
2022-07-30T07:52:06.537Z,5.13
2022-07-30T07:54:33.561Z,4.40
2022-07-30T07:57:03.054Z,4.15
2022-07-30T07:59:39.790Z,4.45
2022-07-30T08:02:08.537Z,3.95
2022-07-30T08:04:36.466Z,4.10
2022-07-30T08:07:04.402Z,4.85
2022-07-30T08:09:44.339Z,4.38
2022-07-30T08:12:14.557Z,4.25
2022-07-30T08:14:41.326Z,4.25
2022-07-30T08:17:08.612Z,3.90
2022-07-30T08:19:35.680Z,3.90
2022-07-30T08:22:02.274Z,3.55
2022-07-30T08:24:28.822Z,3.72
2022-07-30T08:26:56.417Z,3.20
2022-07-30T08:29:22.963Z,3.55
2022-07-30T08:31:49.569Z,3.72
2022-07-30T08:34:16.538Z,3.45
2022-07-30T08:36:43.318Z,3.22
2022-07-30T08:39:10.052Z,3.40
2022-07-30T08:41:37.965Z,2.53
2022-07-30T08:44:12.577Z,3.08
2022-07-30T08:46:46.992Z,2.95
2022-07-30T08:49:15.877Z,3.30
2022-07-30T08:51:42.728Z,2.92
2022-07-30T08:54:09.671Z,3.00
2022-07-30T08:56:37.028Z,2.58
2022-07-30T08:59:04.503Z,2.65
2022-07-30T09:01:31.214Z,3.15
2022-07-30T09:03:57.951Z,2.80
2022-07-30T09:06:24.645Z,2.65
2022-07-30T09:08:51.362Z,2.72
2022-07-30T09:11:18.012Z,2.78
2022-07-30T09:13:45.107Z,2.53
2022-07-30T09:16:21.943Z,2.53
2022-07-30T09:18:49.250Z,2.40
2022-07-30T09:21:29.160Z,2.55
2022-07-30T09:24:11.627Z,2.60
2022-07-30T09:26:55.732Z,2.47
2022-07-30T09:29:24.706Z,2.80
2022-07-30T09:32:07.398Z,2.60
2022-07-30T09:34:38.738Z,2.47
2022-07-30T09:37:26.562Z,2.50
2022-07-30T09:39:56.575Z,2.20
2022-07-30T09:42:28.593Z,2.70
2022-07-30T09:45:10.193Z,2.05
2022-07-30T09:47:39.168Z,2.58
2022-07-30T09:50:13.098Z,2.40
2022-07-30T09:52:48.829Z,2.42
2022-07-30T09:55:30.502Z,2.17
2022-07-30T09:58:03.508Z,2.47
2022-07-30T10:00:32.714Z,2.00
2022-07-30T10:03:00.650Z,2.17
2022-07-30T10:05:39.682Z,2.20
2022-07-30T10:08:09.498Z,2.10
2022-07-30T10:10:47.136Z,1.48
2022-07-30T10:13:17.966Z,2.03
2022-07-30T10:15:49.734Z,2.40
2022-07-30T10:18:17.549Z,2.22
2022-07-30T10:20:45.120Z,1.80
2022-07-30T10:23:15.574Z,2.10
2022-07-30T10:25:49.510Z,2.20
2022-07-30T10:28:24.777Z,2.30
2022-07-30T10:30:53.691Z,1.92
2022-07-30T10:33:36.280Z,1.80
2022-07-30T10:36:09.089Z,1.70
2022-07-30T10:38:41.721Z,1.92
2022-07-30T10:41:42.309Z,1.75
2022-07-30T10:44:19.846Z,2.00
2022-07-30T10:47:07.859Z,1.88
2022-07-30T10:49:41.338Z,1.80
2022-07-30T10:52:12.112Z,1.70
2022-07-30T10:54:45.257Z,1.42
2022-07-30T10:57:22.669Z,1.85
2022-07-30T10:59:55.660Z,1.80
2022-07-30T11:02:28.742Z,2.00
2022-07-30T11:05:18.564Z,1.60
2022-07-30T11:07:53.945Z,1.80
2022-07-30T11:10:40.666Z,1.92
2022-07-30T11:13:11.725Z,1.73
2022-07-30T11:15:57.150Z,1.35
2022-07-30T11:18:25.587Z,1.60
2022-07-30T11:21:14.075Z,1.85
2022-07-30T11:23:40.870Z,1.80
2022-07-30T11:26:07.815Z,1.60
2022-07-30T11:28:46.123Z,1.60
2022-07-30T11:31:36.929Z,1.80
2022-07-30T11:34:20.761Z,1.70
2022-07-30T11:37:18.024Z,1.73
2022-07-30T11:39:56.870Z,1.55
2022-07-30T11:42:29.854Z,1.50
2022-07-30T11:45:20.144Z,1.50
2022-07-30T11:47:49.029Z,1.55
2022-07-30T11:50:27.466Z,1.90
2022-07-30T11:53:00.866Z,1.50
2022-07-30T11:55:40.037Z,1.83
2022-07-30T11:58:10.245Z,1.50
2022-07-30T12:00:48.210Z,1.20
2022-07-30T12:03:19.950Z,1.70
2022-07-30T12:05:53.513Z,1.40
2022-07-30T12:08:35.468Z,1.40
2022-07-30T12:11:03.640Z,2.20
2022-07-30T12:13:45.158Z,1.70
2022-07-30T12:16:17.858Z,1.65
2022-07-30T12:18:48.854Z,1.58
2022-07-30T12:21:18.960Z,1.60
2022-07-30T12:24:00.846Z,1.88
2022-07-30T12:26:34.767Z,1.30
2022-07-30T12:29:06.773Z,1.80
2022-07-30T12:31:38.563Z,1.30
2022-07-30T12:34:26.833Z,1.50
2022-07-30T12:36:54.441Z,1.27
2022-07-30T12:39:27.190Z,1.50
2022-07-30T12:41:59.347Z,1.33
2022-07-30T12:44:40.278Z,1.20
2022-07-30T12:47:26.335Z,1.20
2022-07-30T12:49:55.356Z,1.13
2022-07-30T12:52:31.387Z,1.33
2022-07-30T12:55:12.048Z,1.27
2022-07-30T12:58:08.803Z,1.27
2022-07-30T13:00:45.076Z,1.30
2022-07-30T13:03:39.410Z,1.50
2022-07-30T13:06:20.779Z,1.30
2022-07-30T13:08:58.280Z,1.30
2022-07-30T13:11:27.336Z,1.13
2022-07-30T13:13:54.436Z,1.38
2022-07-30T13:16:21.394Z,1.40
2022-07-30T13:18:48.649Z,1.40
2022-07-30T13:21:15.507Z,1.20
2022-07-30T13:23:42.940Z,1.50
2022-07-30T13:26:33.186Z,1.42
2022-07-30T13:29:02.071Z,1.13
2022-07-30T13:31:29.254Z,1.40
2022-07-30T13:34:10.011Z,1.38
2022-07-30T13:36:37.185Z,1.40
2022-07-30T13:39:04.024Z,1.05
2022-07-30T13:41:30.902Z,1.15
2022-07-30T13:43:57.721Z,1.38
2022-07-30T13:46:24.714Z,1.48
2022-07-30T13:48:53.995Z,1.38
2022-07-30T13:51:22.221Z,1.25
2022-07-30T13:53:49.399Z,1.08
2022-07-30T13:56:16.951Z,1.25
2022-07-30T13:58:47.163Z,1.20
2022-07-30T14:01:18.450Z,1.40
2022-07-30T14:03:49.362Z,1.23
2022-07-30T14:06:22.614Z,1.40
2022-07-30T14:08:50.041Z,1.42
2022-07-30T14:11:19.315Z,1.17
2022-07-30T14:13:47.817Z,1.10
2022-07-30T14:16:35.707Z,1.38
2022-07-30T14:19:03.240Z,1.27
2022-07-30T14:21:31.334Z,1.00
2022-07-30T14:23:58.175Z,0.90
2022-07-30T14:26:25.119Z,0.90
2022-07-30T14:29:04.936Z,0.80
2022-07-30T14:31:33.726Z,0.75
2022-07-30T14:34:02.341Z,1.13
2022-07-30T14:36:30.142Z,1.00
2022-07-30T14:38:58.330Z,1.10
2022-07-30T14:41:26.732Z,1.00
2022-07-30T14:43:54.197Z,1.10
2022-07-30T14:46:21.140Z,1.20
2022-07-30T14:48:48.902Z,0.80
2022-07-30T14:51:24.116Z,1.20
2022-07-30T14:53:52.357Z,1.23
2022-07-30T14:56:19.649Z,1.10
2022-07-30T14:58:46.572Z,0.85
2022-07-30T15:01:15.894Z,0.90
2022-07-30T15:03:44.474Z,0.90
2022-07-30T15:06:12.900Z,0.90
2022-07-30T15:08:39.662Z,1.25
2022-07-30T15:11:09.594Z,0.80
2022-07-30T15:13:37.133Z,0.70
2022-07-30T15:16:07.796Z,1.00
2022-07-30T15:18:35.519Z,0.95
2022-07-30T15:21:02.370Z,0.80
2022-07-30T15:23:29.095Z,0.95
2022-07-30T15:25:55.945Z,1.08
2022-07-30T15:28:23.918Z,0.90
2022-07-30T15:30:50.546Z,1.10
2022-07-30T15:33:17.183Z,1.05
2022-07-30T15:35:43.732Z,0.93
2022-07-30T15:38:10.308Z,1.30
2022-07-30T15:40:36.932Z,1.02
2022-07-30T15:43:09.776Z,1.10
2022-07-30T15:45:37.972Z,1.10
2022-07-30T15:48:26.525Z,2.10
2022-07-30T15:51:03.081Z,1.73
2022-07-30T15:53:31.259Z,1.30
2022-07-30T15:55:59.574Z,1.38
2022-07-30T15:58:26.173Z,1.38
2022-07-30T16:00:52.922Z,1.10
2022-07-30T16:03:19.554Z,1.10
2022-07-30T16:05:51.487Z,0.90
2022-07-30T16:08:19.927Z,1.13
2022-07-30T16:10:46.610Z,1.58
2022-07-30T16:13:14.228Z,1.33
2022-07-30T16:15:40.858Z,1.20
2022-07-30T16:18:08.292Z,1.17
2022-07-30T16:20:35.015Z,1.30
2022-07-30T16:23:01.801Z,1.30
2022-07-30T16:25:28.534Z,1.27
2022-07-30T16:27:55.146Z,1.25
2022-07-30T16:30:23.433Z,2.30
2022-07-30T16:32:56.298Z,2.22
2022-07-30T16:35:23.288Z,2.00
2022-07-30T16:37:49.936Z,1.60
2022-07-30T16:40:16.679Z,1.27
2022-07-30T16:42:43.339Z,1.73
2022-07-30T16:45:10.353Z,1.60
2022-07-30T16:47:36.980Z,1.67
2022-07-30T16:50:03.825Z,2.25
2022-07-30T16:52:30.390Z,1.92
2022-07-30T16:54:56.982Z,1.55
2022-07-30T16:57:23.550Z,1.83
2022-07-30T16:59:50.199Z,1.50
2022-07-30T17:02:16.892Z,1.88
2022-07-30T17:04:43.500Z,1.33
2022-07-30T17:07:10.091Z,1.83
2022-07-30T17:09:37.120Z,1.60
2022-07-30T17:12:06.379Z,1.75
2022-07-30T17:14:41.353Z,1.60
2022-07-30T17:17:13.737Z,1.70
2022-07-30T17:19:41.537Z,1.10
2022-07-30T17:22:08.534Z,1.30
2022-07-30T17:24:35.180Z,1.40
2022-07-30T17:27:02.033Z,1.75
2022-07-30T17:29:29.685Z,1.48
2022-07-30T17:31:56.365Z,1.45
2022-07-30T17:34:22.955Z,1.50
2022-07-30T17:36:52.679Z,1.35
2022-07-30T17:40:26.410Z,1.50
2022-07-30T17:42:13.224Z,1.55
2022-07-30T17:44:41.483Z,1.80
2022-07-30T17:47:14.669Z,1.70
2022-07-30T17:49:42.952Z,1.63
2022-07-30T17:52:09.475Z,1.30
2022-07-30T17:54:36.096Z,1.77
2022-07-30T17:57:02.717Z,1.50
2022-07-30T17:59:29.316Z,1.33
2022-07-30T18:02:15.939Z,1.38
2022-07-30T18:09:40.111Z,1.75
2022-07-30T18:12:07.282Z,1.55
2022-07-30T18:14:33.977Z,1.67
2022-07-30T18:17:02.791Z,1.60
2022-07-30T18:19:30.429Z,1.42
2022-07-30T18:21:57.570Z,1.77
2022-07-30T18:24:28.620Z,1.33
2022-07-30T18:26:55.247Z,1.35
2022-07-30T18:29:21.948Z,1.42
2022-07-30T18:31:48.556Z,1.33
2022-07-30T18:34:15.301Z,1.52
2022-07-30T18:36:41.956Z,1.70
2022-07-30T18:39:08.669Z,1.45
2022-07-30T18:41:35.465Z,1.60
2022-07-30T18:44:02.342Z,1.30
2022-07-30T18:46:29.100Z,1.65
2022-07-30T18:48:55.881Z,1.42
2022-07-30T18:51:25.167Z,1.60
2022-07-30T18:53:52.511Z,1.45
2022-07-30T18:56:19.801Z,1.35
2022-07-30T18:58:46.453Z,1.48
2022-07-30T19:01:13.280Z,1.52
2022-07-30T19:03:40.999Z,2.13
2022-07-30T19:06:07.671Z,1.70
2022-07-30T19:08:35.247Z,1.70
2022-07-30T19:11:01.838Z,1.67
2022-07-30T19:13:29.407Z,1.42
2022-07-30T19:15:56.073Z,1.52
2022-07-30T19:18:23.686Z,1.77
2022-07-30T19:20:51.441Z,1.40
2022-07-30T19:23:18.703Z,1.45
2022-07-30T19:25:45.504Z,1.77
2022-07-30T19:28:13.909Z,1.55
2022-07-30T19:30:40.542Z,1.20
2022-07-30T19:33:14.812Z,1.70
2022-07-30T19:35:42.968Z,2.33
2022-07-30T19:38:14.273Z,1.80
2022-07-30T19:40:48.215Z,1.52
2022-07-30T19:43:15.954Z,1.40
2022-07-30T19:45:47.243Z,1.80
2022-07-30T19:48:28.653Z,1.73
2022-07-30T19:51:01.672Z,1.58
2022-07-30T19:53:31.605Z,1.70
2022-07-30T19:56:04.617Z,1.60
2022-07-30T20:03:50.868Z,1.48
2022-07-30T20:06:19.250Z,1.20
2022-07-30T20:08:49.611Z,1.35
2022-07-30T20:11:21.291Z,2.05
2022-07-30T20:14:01.897Z,1.40
2022-07-30T20:16:28.756Z,1.50
2022-07-30T20:18:55.676Z,1.73
2022-07-30T20:21:56.791Z,1.80
2022-07-30T20:24:12.711Z,2.65
2022-07-30T20:26:42.075Z,2.40
2022-07-30T20:29:18.807Z,2.22
2022-07-30T20:31:46.446Z,2.03
2022-07-30T20:34:18.103Z,1.83
2022-07-30T20:36:45.996Z,1.67
2022-07-30T20:39:18.294Z,1.90
2022-07-30T20:41:45.255Z,1.83
2022-07-30T20:44:23.056Z,1.50
2022-07-30T20:46:49.876Z,1.60
2022-07-30T20:49:17.883Z,2.00
2022-07-30T20:51:50.311Z,1.48
2022-07-30T20:54:17.076Z,2.00
2022-07-30T20:56:43.945Z,1.92
2022-07-30T20:59:10.686Z,2.20
2022-07-30T21:01:37.672Z,1.67
2022-07-30T21:04:04.637Z,1.63
2022-07-30T21:06:31.768Z,1.70
2022-07-30T21:09:01.450Z,1.83
2022-07-30T21:11:29.108Z,2.30
2022-07-30T21:13:55.823Z,1.60
2022-07-30T21:16:23.682Z,1.90
2022-07-30T21:18:50.838Z,1.73
2022-07-30T21:21:28.680Z,1.80
2022-07-30T21:24:05.725Z,2.33
2022-07-30T21:26:32.381Z,1.80
2022-07-30T21:29:00.852Z,1.85
2022-07-30T21:31:58.085Z,1.40
2022-07-30T21:34:14.405Z,1.50
2022-07-30T21:36:42.700Z,1.52
2022-07-30T21:39:09.956Z,1.80
2022-07-30T21:41:41.184Z,1.67
2022-07-30T21:44:09.857Z,1.55
2022-07-30T21:46:37.999Z,1.60
2022-07-30T21:49:07.051Z,1.90
2022-07-30T21:51:34.687Z,1.60
2022-07-30T21:54:01.650Z,1.80
2022-07-30T21:56:33.804Z,1.40
2022-07-30T21:59:00.445Z,1.52
2022-07-30T22:01:28.235Z,1.52
2022-07-30T22:04:08.044Z,1.67
2022-07-30T22:06:38.383Z,1.80
2022-07-30T22:09:26.402Z,1.80
2022-07-30T22:11:55.581Z,1.60
2022-07-30T22:14:22.555Z,1.83
2022-07-30T22:16:49.437Z,1.63
2022-07-30T22:19:17.129Z,2.05
2022-07-30T22:21:46.619Z,1.80
2022-07-30T22:24:28.804Z,1.33
2022-07-30T22:27:01.156Z,1.30
2022-07-30T22:29:34.438Z,1.67
2022-07-30T22:32:03.097Z,1.60
2022-07-30T22:34:30.329Z,1.63
2022-07-30T22:36:57.509Z,1.52
2022-07-30T22:39:48.803Z,1.58
2022-07-30T22:42:12.685Z,1.90
2022-07-30T22:44:39.771Z,1.92
2022-07-30T22:47:18.923Z,1.63
2022-07-30T22:49:53.172Z,1.73
2022-07-30T22:55:08.473Z,1.50
2022-07-30T22:57:38.155Z,2.45
2022-07-30T23:00:11.820Z,1.65
2022-07-30T23:02:41.454Z,1.58
2022-07-30T23:05:10.040Z,1.60
2022-07-30T23:07:40.487Z,1.75
2022-07-30T23:10:17.857Z,1.80
2022-07-30T23:12:15.623Z,1.90
2022-07-30T23:12:47.862Z,1.60
2022-07-30T23:15:15.743Z,1.98
2022-07-30T23:17:43.536Z,1.92
2022-07-30T23:20:13.748Z,1.85
2022-07-30T23:22:40.582Z,1.70
2022-07-30T23:25:10.485Z,1.50
2022-07-30T23:27:37.452Z,1.55
2022-07-30T23:30:04.371Z,1.70
2022-07-30T23:32:30.957Z,1.80
2022-07-30T23:34:57.574Z,1.98
2022-07-30T23:37:24.152Z,2.38
2022-07-30T23:39:50.734Z,1.67
2022-07-30T23:42:18.054Z,1.60
2022-07-30T23:44:44.640Z,1.65
2022-07-30T23:47:11.294Z,1.80
2022-07-30T23:49:38.321Z,1.75
2022-07-30T23:52:05.255Z,1.80
2022-07-30T23:54:32.400Z,2.20
2022-07-30T23:56:58.989Z,1.80
2022-07-30T23:59:40.572Z,1.73
